Pagrindinis puslapis
METAR-TAF:

METAR-TAF

Oro uostai :

Londrina, Parana, Brazilija

platuma: 23-20S, ilguma: 051-08W, Aukštis: 569 m

Dabartinis oras

Ataskaita buvo paskelbta 5 valandos ir 19 minutes, ne 23:00 UTC
Vėjas 10 kt iš Pietvakarių
Temperatūra 21°C
Drėgmė 94%
Slėgis 1015 hPa
Matomumas: 8000 m
Su prošvaistėmis ne aukštis 2600 ft
Mažai debesys ne aukštis 3000 ft, Liūtiniai kamuoliniai debesys.
Su prošvaistėmis ne aukštis 8000 ft
perkūnija, lietus

METAR: SBLO 062300Z 22010KT 8000 TSRA BKN026 FEW030CB BKN080 21/20 Q1015

Laikas: 01:19 (04:19 UTC)

Prognozė

Ataskaita buvo paskelbta 7 valandos ir 19 minutes, ne 21:00 UTC
Prognozė galioja nuo 07 metu 00 UTC su 07 metu 12 UTC
Vėjas 5 kt iš Rytų/Šiaurės Rytų
Matomumas 10 km arba daugiau
nėra debesų žemiau 1500 m ir nėra kamuolinių lietaus debesų
Tapsmas
nuo 07 metu 01 UTC su 07 metu 03 UTC
Vėjas 5 kt iš Pietų/Pietryčių
Tapsmas
nuo 07 metu 09 UTC su 07 metu 11 UTC
Vėjas 7 kt iš Rytų

TAF: SBLO 062100Z 0700/0712 07005KT CAVOK TX27/0700Z TN18/0708Z BECMG 0701/0703 15005KT BECMG 0709/0711 09007KT RMK PCZ

Orai ataskaitas ir orų prognozės (METAR, TAF).

turimą stotys yra geltonos ir raudonos taškus žemėlapyje.

Perkelti pele per norėdami pamatyti stoties vardą.

Tada spustelėkite, norėdami matyti oro stebėjimo ir prognozės.

Norėdami pakeisti žemėlapį: spustelėkite ant žalios mygtukų su juodo kryžiaus žemyn,; žalią mygtuką su brūkšneliu, jei norite nutolinti; arba žalių rodyklių gretimoms žemėlapius.


METAR-TAF: